createdAt,value
2023-02-18T00:02:21.940Z,101223.88
2023-02-18T00:07:23.482Z,101239.06
2023-02-18T00:12:25.036Z,101237.16
2023-02-18T00:17:26.777Z,101226.78
2023-02-18T00:22:28.728Z,101225.94
2023-02-18T00:27:30.264Z,101213.47
2023-02-18T00:32:35.103Z,101210.50
2023-02-18T00:37:36.718Z,101213.25
2023-02-18T00:42:38.252Z,101205.84
2023-02-18T00:47:42.223Z,101210.72
2023-02-18T00:52:43.762Z,101216.66
2023-02-18T00:57:45.301Z,101212.84
2023-02-18T01:02:46.878Z,101206.72
2023-02-18T01:07:48.427Z,101205.69
2023-02-18T01:12:49.984Z,101209.06
2023-02-18T01:17:51.882Z,101201.66
2023-02-18T01:22:53.400Z,101195.94
2023-02-18T01:27:56.703Z,101197.81
2023-02-18T01:32:58.467Z,101197.81
2023-02-18T01:38:00.021Z,101195.31
2023-02-18T01:43:01.581Z,101189.22
2023-02-18T01:48:18.014Z,101187.34
2023-02-18T01:53:31.258Z,101182.25
2023-02-18T01:58:33.396Z,101178.28
2023-02-18T02:03:36.503Z,101194.31
2023-02-18T02:08:39.226Z,101191.16
2023-02-18T02:14:03.825Z,101198.16
2023-02-18T02:19:34.723Z,101185.09
2023-02-18T02:24:53.074Z,101195.44
2023-02-18T02:29:57.368Z,101194.81
2023-02-18T02:35:24.327Z,101205.38
2023-02-18T02:40:35.199Z,101191.22
2023-02-18T02:46:12.919Z,101200.53
2023-02-18T02:51:26.619Z,101191.06
2023-02-18T02:56:29.352Z,101170.97
2023-02-18T03:02:05.161Z,101160.22
2023-02-18T03:07:19.550Z,101161.50
2023-02-18T03:12:52.928Z,101161.06
2023-02-18T03:17:54.668Z,101132.81
2023-02-18T03:23:00.113Z,101121.00
2023-02-18T03:28:20.658Z,101127.31
2023-02-18T03:33:28.488Z,101117.19
2023-02-18T03:38:37.942Z,101118.03
2023-02-18T03:43:41.601Z,101120.53
2023-02-18T03:48:43.610Z,101123.09
2023-02-18T03:53:45.717Z,101119.72
2023-02-18T03:58:47.788Z,101112.75
2023-02-18T04:03:49.322Z,101110.22
2023-02-18T04:08:51.188Z,101099.47
2023-02-18T04:13:53.049Z,101107.53
2023-02-18T04:18:54.603Z,101117.88
2023-02-18T04:23:56.318Z,101123.34
2023-02-18T04:28:57.955Z,101123.56
2023-02-18T04:33:59.564Z,101116.16
2023-02-18T04:39:01.109Z,101130.31
2023-02-18T04:44:02.804Z,101122.09
2023-02-18T04:49:04.384Z,101114.09
2023-02-18T04:54:05.954Z,101107.75
2023-02-18T04:59:07.505Z,101105.03
2023-02-18T05:04:09.428Z,101107.97
2023-02-18T05:09:11.771Z,101113.44
2023-02-18T05:14:13.996Z,101106.91
2023-02-18T05:19:16.125Z,101119.16
2023-02-18T05:24:19.812Z,101104.59
2023-02-18T05:29:21.392Z,101098.69
2023-02-18T05:34:22.890Z,101089.00
2023-02-18T05:39:24.432Z,101074.22
2023-02-18T05:44:32.393Z,101075.06
2023-02-18T05:49:35.080Z,101071.69
2023-02-18T05:54:37.777Z,101068.50
2023-02-18T05:59:39.397Z,101081.78
2023-02-18T06:04:41.015Z,101078.22
2023-02-18T06:09:42.520Z,101062.59
2023-02-18T06:14:44.208Z,101064.28
2023-02-18T06:19:45.944Z,101059.84
2023-02-18T06:24:47.489Z,101066.81
2023-02-18T06:29:48.991Z,101068.72
2023-02-18T06:34:50.482Z,101070.19
2023-02-18T06:39:52.121Z,101063.00
2023-02-18T06:44:53.670Z,101056.84
2023-02-18T06:49:55.213Z,101062.09
2023-02-18T06:54:56.754Z,101060.38
2023-02-18T06:59:58.661Z,101047.50
2023-02-18T07:05:00.283Z,101045.94
2023-02-18T07:10:02.235Z,101032.81
2023-02-18T07:15:04.439Z,101031.03
2023-02-18T07:20:06.981Z,101008.59
2023-02-18T07:25:08.536Z,101007.69
2023-02-18T07:30:10.565Z,101003.59
2023-02-18T07:35:16.000Z,100987.50
2023-02-18T07:40:21.556Z,100985.06
2023-02-18T07:45:23.118Z,100968.28
2023-02-18T07:50:24.720Z,100985.78
2023-02-18T07:55:46.299Z,100976.25
2023-02-18T08:00:49.544Z,100970.69
2023-02-18T08:05:51.850Z,100978.88
2023-02-18T08:10:55.341Z,100965.28
2023-02-18T08:15:57.704Z,100968.78
2023-02-18T08:21:00.375Z,100962.53
2023-02-18T08:26:02.036Z,100947.75
2023-02-18T08:31:04.043Z,100930.59
2023-02-18T08:36:07.860Z,100931.63
2023-02-18T08:41:09.970Z,100918.03
2023-02-18T08:46:16.533Z,100922.63
2023-02-18T08:51:34.082Z,100929.22
2023-02-18T08:56:37.897Z,100930.91
2023-02-18T09:01:39.470Z,100937.31
2023-02-18T09:06:41.080Z,100939.81
2023-02-18T09:11:43.172Z,100929.75
2023-02-18T09:16:44.693Z,100933.78
2023-02-18T09:21:46.277Z,100930.59
2023-02-18T09:26:47.831Z,100932.66
2023-02-18T09:31:49.513Z,100919.84
2023-02-18T09:36:51.086Z,100914.47
2023-02-18T09:42:02.568Z,100914.25
2023-02-18T09:47:11.429Z,100903.69
2023-02-18T09:52:26.819Z,100888.72
2023-02-18T09:57:44.873Z,100878.31
2023-02-18T10:02:58.622Z,100883.56
2023-02-18T10:08:06.713Z,100910.16
2023-02-18T10:13:15.240Z,100898.91
2023-02-18T10:23:41.736Z,100917.84
2023-02-18T10:28:43.528Z,100913.75
2023-02-18T10:34:17.533Z,100913.63
2023-02-18T10:40:11.261Z,100921.06
2023-02-18T10:45:37.713Z,100921.41
2023-02-18T10:50:42.090Z,100904.28
2023-02-18T10:55:46.341Z,100897.22
2023-02-18T11:00:47.875Z,100906.22
2023-02-18T11:05:57.623Z,100898.19
2023-02-18T11:11:09.625Z,100875.41
2023-02-18T11:16:12.541Z,100856.09
2023-02-18T11:21:32.525Z,100845.59
2023-02-18T11:26:35.533Z,100834.56
2023-02-18T11:31:45.152Z,100848.44
2023-02-18T11:36:48.230Z,100840.63
2023-02-18T11:41:56.961Z,100819.72
2023-02-18T11:47:16.656Z,100811.03
2023-02-18T11:52:20.499Z,100823.53
2023-02-18T11:57:26.453Z,100839.28
2023-02-18T12:02:37.940Z,100819.66
2023-02-18T12:07:48.892Z,100799.91
2023-02-18T12:12:59.636Z,100808.94
2023-02-18T12:18:16.287Z,100806.25
2023-02-18T12:23:41.034Z,100807.81
2023-02-18T12:28:51.503Z,100802.88
2023-02-18T12:34:21.211Z,100763.94
2023-02-18T12:39:31.767Z,100734.06
2023-02-18T12:44:45.902Z,100748.91
2023-02-18T12:50:06.387Z,100677.97
2023-02-18T12:55:32.095Z,100742.56
2023-02-18T13:00:48.630Z,100723.25
2023-02-18T13:05:55.378Z,100733.81
2023-02-18T13:11:09.089Z,100755.28
2023-02-18T13:16:13.372Z,100765.06
2023-02-18T13:21:16.826Z,100781.19
2023-02-18T13:26:19.317Z,100762.25
2023-02-18T13:31:44.852Z,100741.69
2023-02-18T13:37:20.008Z,100729.84
2023-02-18T13:42:32.038Z,100723.94
2023-02-18T13:47:37.336Z,100749.22
2023-02-18T13:52:38.907Z,100757.13
2023-02-18T13:57:40.740Z,100750.53
2023-02-18T14:02:57.779Z,100721.13
2023-02-18T14:08:14.398Z,100721.09
2023-02-18T14:13:39.659Z,100698.59
2023-02-18T14:18:41.141Z,100676.31
2023-02-18T14:23:51.808Z,100664.34
2023-02-18T14:29:01.795Z,100667.22
2023-02-18T14:34:18.543Z,100643.66
2023-02-18T14:39:45.247Z,100628.91
2023-02-18T14:45:17.126Z,100666.47
2023-02-18T14:50:20.551Z,100659.41
2023-02-18T14:55:49.890Z,100642.34
2023-02-18T15:00:51.395Z,100690.75
2023-02-18T15:05:52.973Z,100699.53
2023-02-18T15:11:07.462Z,100707.16
2023-02-18T15:16:14.352Z,100706.47
2023-02-18T15:21:30.449Z,100707.81
2023-02-18T15:26:32.453Z,100712.97
2023-02-18T15:31:39.228Z,100676.44
2023-02-18T15:36:40.812Z,100680.38
2023-02-18T15:41:42.403Z,100698.84
2023-02-18T15:46:44.000Z,100705.75
2023-02-18T15:51:46.029Z,100718.09
2023-02-18T15:56:52.233Z,100735.66
2023-02-18T16:01:57.126Z,100723.09
2023-02-18T16:07:20.861Z,100742.66
2023-02-18T16:12:30.740Z,100747.91
2023-02-18T16:17:32.392Z,100748.84
2023-02-18T16:22:43.064Z,100767.81
2023-02-18T16:27:55.236Z,100768.59
2023-02-18T16:32:57.964Z,100781.44
2023-02-18T16:37:59.920Z,100788.78
2023-02-18T16:43:09.488Z,100797.16
2023-02-18T16:48:21.518Z,100808.66
2023-02-18T16:53:23.734Z,100825.44
2023-02-18T16:58:25.347Z,100833.97
2023-02-18T17:03:26.909Z,100837.84
2023-02-18T17:08:28.420Z,100847.88
2023-02-18T17:13:31.558Z,100852.16
2023-02-18T17:18:33.090Z,100847.78
2023-02-18T17:23:34.593Z,100860.09
2023-02-18T17:28:36.086Z,100874.69
2023-02-18T17:33:38.651Z,100884.22
2023-02-18T17:38:40.430Z,100889.50
2023-02-18T17:43:42.533Z,100896.50
2023-02-18T17:48:45.459Z,100898.41
2023-02-18T17:53:47.093Z,100908.78
2023-02-18T17:58:49.136Z,100905.84
2023-02-18T18:03:50.654Z,100915.56
2023-02-18T18:08:52.179Z,100923.16
2023-02-18T18:13:53.724Z,100931.81
2023-02-18T18:18:55.269Z,100941.75
2023-02-18T18:23:56.996Z,100935.66
2023-02-18T18:28:58.703Z,100947.28
2023-02-18T18:34:01.421Z,100962.50
2023-02-18T18:39:03.040Z,100958.50
2023-02-18T18:44:04.855Z,100968.22
2023-02-18T18:49:06.463Z,100975.41
2023-02-18T18:54:11.618Z,100977.09
2023-02-18T18:59:13.133Z,100977.56
2023-02-18T19:04:14.871Z,100965.53
2023-02-18T19:09:16.428Z,100974.41
2023-02-18T19:14:17.954Z,100965.34
2023-02-18T19:19:20.995Z,100976.28
2023-02-18T19:24:22.494Z,100975.47
2023-02-18T19:29:26.393Z,100993.41
2023-02-18T19:34:27.895Z,100989.19
2023-02-18T19:39:29.433Z,100986.66
2023-02-18T19:44:34.453Z,100992.13
2023-02-18T19:49:35.978Z,100991.94
2023-02-18T19:54:37.522Z,100990.88
2023-02-18T19:59:40.016Z,100996.75
2023-02-18T20:04:42.436Z,100996.34
2023-02-18T20:09:44.116Z,100998.47
2023-02-18T20:14:46.035Z,101011.28
2023-02-18T20:19:47.628Z,101007.28
2023-02-18T20:24:49.247Z,100994.66
2023-02-18T20:29:51.453Z,101000.97
2023-02-18T20:34:53.063Z,100998.00
2023-02-18T20:39:54.554Z,100988.53
2023-02-18T20:44:56.093Z,101002.63
2023-02-18T20:49:57.622Z,101004.72
2023-02-18T20:54:59.189Z,100993.13
2023-02-18T21:00:00.746Z,101008.91
2023-02-18T21:05:02.304Z,100990.84
2023-02-18T21:10:04.416Z,100999.03
2023-02-18T21:15:06.559Z,101004.06
2023-02-18T21:20:08.406Z,100998.59
2023-02-18T21:25:09.967Z,101002.56
2023-02-18T21:30:11.696Z,100997.72
2023-02-18T21:35:13.250Z,101013.50
2023-02-18T21:40:14.883Z,101006.75
2023-02-18T21:45:17.150Z,101000.66
2023-02-18T21:50:19.136Z,100993.50
2023-02-18T21:55:20.724Z,101000.41
2023-02-18T22:00:22.801Z,100996.00
2023-02-18T22:05:26.076Z,100986.09
2023-02-18T22:10:27.586Z,100986.09
2023-02-18T22:15:29.096Z,100969.63
2023-02-18T22:20:30.610Z,100975.50
2023-02-18T22:25:32.142Z,100963.94
2023-02-18T22:30:33.738Z,100957.00
2023-02-18T22:35:35.411Z,100962.91
2023-02-18T22:40:36.941Z,100950.94
2023-02-18T22:45:38.512Z,100946.75
2023-02-18T22:50:42.193Z,100952.03
2023-02-18T22:55:44.080Z,100952.03
2023-02-18T23:00:45.641Z,100954.53
2023-02-18T23:05:47.455Z,100955.59
2023-02-18T23:11:00.174Z,100957.69
2023-02-18T23:16:04.862Z,100954.94
2023-02-18T23:21:22.777Z,100947.38
2023-02-18T23:26:25.765Z,100931.38
2023-02-18T23:31:27.973Z,100943.78
2023-02-18T23:36:31.712Z,100942.94
2023-02-18T23:41:33.229Z,100942.44
2023-02-18T23:46:35.164Z,100951.63
2023-02-18T23:51:36.688Z,100947.78
2023-02-18T23:56:38.383Z,100947.63
